Time;durP1;ratioP1;P1;durP2;ratioP2;P2;SDS_P1;SDS_P2;PMS_P1;PMS_P2;Temp;Humidity;BMP_temperature;BMP_pressure;BME280_temperature;BME280_humidity;BME280_pressure;Samples;Min_cycle;Max_cycle;Signal;HPM_P1;HPM_P2
2023/03/15 00:01:23;;;;;;;;;14.67;13.67;;;;;5.99;100.00;101175.53;5010780;28;45746;-78
2023/03/15 00:03:48;;;;;;;;;11.67;10.67;;;;;5.87;100.00;101149.59;5010649;28;45703;-75
2023/03/15 00:06:15;;;;;;;;;12.00;11.67;;;;;5.96;100.00;101173.97;5011516;28;45662;-77
2023/03/15 00:08:40;;;;;;;;;14.00;12.67;;;;;5.91;100.00;101167.31;5001457;28;45435;-76
2023/03/15 00:11:06;;;;;;;;;15.33;13.00;;;;;5.91;100.00;101164.59;5010397;28;45386;-77
2023/03/15 00:13:33;;;;;;;;;11.67;10.67;;;;;5.92;100.00;101169.88;5002937;28;47120;-76
2023/03/15 00:16:00;;;;;;;;;19.67;14.00;;;;;5.78;100.00;101151.50;5003680;28;45469;-77
2023/03/15 00:18:26;;;;;;;;;12.67;10.33;;;;;5.89;100.00;101169.38;4992371;28;45678;-76
2023/03/15 00:20:52;;;;;;;;;11.33;10.33;;;;;5.86;100.00;101169.69;5015109;28;45644;-77
2023/03/15 00:23:17;;;;;;;;;14.33;12.33;;;;;5.85;100.00;101168.81;5002522;28;45807;-76
2023/03/15 00:25:44;;;;;;;;;11.00;10.00;;;;;5.81;100.00;101181.94;4990682;28;45427;-76
2023/03/15 00:28:10;;;;;;;;;17.00;13.00;;;;;5.78;100.00;101178.72;4990265;28;45723;-77
2023/03/15 00:30:35;;;;;;;;;11.00;10.67;;;;;5.79;100.00;101169.50;5002692;28;45665;-76
2023/03/15 00:33:00;;;;;;;;;10.67;9.33;;;;;5.74;100.00;101166.44;5007162;28;45888;-76
2023/03/15 00:35:26;;;;;;;;;18.00;11.33;;;;;5.75;100.00;101169.00;4991588;28;45957;-77
2023/03/15 00:37:55;;;;;;;;;12.00;10.00;;;;;5.75;100.00;101179.88;5005804;28;45734;-77
2023/03/15 00:40:22;;;;;;;;;7.33;7.33;;;;;5.77;100.00;101177.84;4993483;28;45766;-76
2023/03/15 00:42:50;;;;;;;;;8.00;8.00;;;;;5.79;100.00;101175.81;5009918;28;45435;-77
2023/03/15 00:45:20;;;;;;;;;14.33;10.00;;;;;5.79;100.00;101181.25;5001337;28;45840;-77
2023/03/15 00:47:53;;;;;;;;;8.33;8.00;;;;;5.79;100.00;101186.69;4991966;28;45851;-76
2023/03/15 00:50:20;;;;;;;;;12.00;9.33;;;;;5.81;100.00;101181.94;5009226;28;45574;-76
2023/03/15 00:52:45;;;;;;;;;12.00;11.00;;;;;5.84;100.00;101189.75;4991085;28;46900;-76
2023/03/15 00:55:13;;;;;;;;;10.00;10.00;;;;;5.85;100.00;101187.88;4983047;28;45660;-78
2023/03/15 00:57:40;;;;;;;;;13.67;10.00;;;;;5.84;100.00;101184.31;4995549;28;45413;-76
2023/03/15 01:00:13;;;;;;;;;9.00;9.00;;;;;5.87;100.00;101195.88;4995962;28;45863;-75
2023/03/15 01:02:39;;;;;;;;;10.33;8.00;;;;;5.84;100.00;101195.22;5012625;28;47060;-76
2023/03/15 01:05:07;;;;;;;;;9.67;9.00;;;;;5.74;100.00;101177.31;5013987;28;45279;-76
2023/03/15 01:07:32;;;;;;;;;8.00;8.00;;;;;5.84;100.00;101194.38;5011827;28;45503;-76
2023/03/15 01:10:00;;;;;;;;;13.00;9.33;;;;;5.84;100.00;101191.66;4996492;28;45892;-76
2023/03/15 01:12:25;;;;;;;;;11.33;10.00;;;;;5.84;100.00;101189.75;4989745;28;47901;-76
2023/03/15 01:14:51;;;;;;;;;11.00;9.00;;;;;5.84;100.00;101197.09;5003563;28;45673;-77
2023/03/15 01:17:16;;;;;;;;;10.33;9.33;;;;;5.81;100.00;101200.97;4998612;28;45982;-76
2023/03/15 01:19:42;;;;;;;;;9.67;9.67;;;;;5.80;100.00;101196.56;5007633;28;45335;-76
2023/03/15 01:22:07;;;;;;;;;5.00;5.00;;;;;5.76;100.00;101197.94;4998813;28;46249;-76
2023/03/15 01:24:32;;;;;;;;;11.00;9.00;;;;;5.74;100.00;101202.66;5006168;28;45385;-75
2023/03/15 01:26:58;;;;;;;;;9.00;7.67;;;;;5.70;100.00;101192.28;5010300;28;45710;-76
2023/03/15 01:29:23;;;;;;;;;9.00;8.00;;;;;5.71;100.00;101202.16;5007003;28;45843;-77
2023/03/15 01:31:49;;;;;;;;;9.00;6.67;;;;;5.71;100.00;101200.28;5010408;28;45972;-75
2023/03/15 01:34:14;;;;;;;;;10.00;9.00;;;;;5.68;100.00;101203.31;5011806;28;45909;-76
2023/03/15 01:36:40;;;;;;;;;15.67;9.00;;;;;5.56;100.00;101191.91;5006560;28;45336;-77
2023/03/15 01:39:05;;;;;;;;;9.67;9.00;;;;;5.64;100.00;101204.66;4990898;28;46002;-76
2023/03/15 01:41:30;;;;;;;;;7.33;7.00;;;;;5.63;100.00;101211.16;5008259;28;45650;-77
2023/03/15 01:43:56;;;;;;;;;9.00;6.33;;;;;5.60;100.00;101211.47;5010901;28;45511;-77
2023/03/15 01:46:34;;;;;;;;;13.00;9.00;;;;;5.59;100.00;101209.75;5013456;28;46074;-76
2023/03/15 01:49:08;;;;;;;;;10.67;9.00;;;;;5.58;100.00;101210.78;5014188;28;45816;-75
2023/03/15 01:52:00;;;;;;;;;10.67;10.67;;;;;5.48;100.00;101195.44;5012657;28;45657;-76
2023/03/15 01:54:38;;;;;;;;;6.67;5.00;;;;;5.57;100.00;101215.38;5013808;28;45797;-76
2023/03/15 01:57:27;;;;;;;;;10.33;7.67;;;;;5.57;100.00;101214.50;4994006;28;45679;-77
2023/03/15 02:00:04;;;;;;;;;10.33;9.00;;;;;5.54;100.00;101221.16;4994511;28;46004;-75
2023/03/15 02:02:30;;;;;;;;;6.67;6.67;;;;;5.50;100.00;101213.47;5011618;28;46409;-76
2023/03/15 02:05:03;;;;;;;;;11.00;10.00;;;;;5.36;100.00;101191.31;5012789;28;45500;-76
2023/03/15 02:07:33;;;;;;;;;6.00;5.00;;;;;5.38;100.00;101200.16;4993438;28;45717;-76
2023/03/15 02:10:16;;;;;;;;;11.33;5.33;;;;;5.51;100.00;101228.75;4998523;28;46481;-76
2023/03/15 02:12:47;;;;;;;;;6.00;6.00;;;;;5.48;100.00;101217.22;4981533;28;48266;-75
2023/03/15 02:15:13;;;;;;;;;9.00;6.33;;;;;5.46;100.00;101213.81;4991052;28;45380;-75
2023/03/15 02:17:42;;;;;;;;;5.67;5.67;;;;;5.43;100.00;101213.25;5011827;28;45501;-75
2023/03/15 02:20:13;;;;;;;;;11.33;7.33;;;;;5.44;100.00;101215.81;5011318;28;45936;-76
2023/03/15 02:22:58;;;;;;;;;10.33;5.67;;;;;5.45;100.00;101219.41;5012307;28;45519;-76
2023/03/15 02:25:49;;;;;;;;;11.33;9.00;;;;;5.45;100.00;101216.69;5009136;28;45727;-76
2023/03/15 02:28:16;;;;;;;;;12.00;9.00;;;;;5.42;100.00;101206.97;5008409;28;45489;-76
2023/03/15 02:30:42;;;;;;;;;8.67;8.67;;;;;5.42;100.00;101211.56;4990606;28;47095;-76
2023/03/15 02:33:24;;;;;;;;;8.00;6.33;;;;;5.42;100.00;101206.09;5010509;28;45687;-76
2023/03/15 02:35:50;;;;;;;;;9.00;5.67;;;;;5.38;100.00;101202.03;4994507;28;45522;-76
2023/03/15 02:38:16;;;;;;;;;6.67;4.00;;;;;5.37;100.00;101206.59;5007901;28;45905;-75
2023/03/15 02:40:44;;;;;;;;;8.33;5.67;;;;;5.38;100.00;101211.03;5013096;28;45406;-75
2023/03/15 02:43:14;;;;;;;;;10.00;8.00;;;;;5.39;100.00;101212.75;5020918;28;46531;-75
2023/03/15 02:45:41;;;;;;;;;8.00;6.33;;;;;5.39;100.00;101204.59;5007306;28;45744;-75
2023/03/15 02:48:09;;;;;;;;;10.00;7.00;;;;;5.39;100.00;101203.72;5009194;28;45678;-74
2023/03/15 02:50:35;;;;;;;;;9.00;8.00;;;;;5.38;100.00;101205.59;4999675;28;46057;-75
2023/03/15 02:53:01;;;;;;;;;10.33;9.33;;;;;5.38;100.00;101202.03;4997186;28;45336;-75
2023/03/15 02:55:27;;;;;;;;;5.00;3.00;;;;;5.37;100.00;101201.16;5004654;28;45813;-76
2023/03/15 02:57:53;;;;;;;;;8.33;7.67;;;;;5.37;100.00;101214.75;5011103;28;45420;-76
2023/03/15 03:00:19;;;;;;;;;8.00;6.00;;;;;5.35;100.00;101205.94;4996197;28;46020;-76
2023/03/15 03:02:46;;;;;;;;;5.00;4.00;;;;;5.38;100.00;101208.31;5005019;28;46128;-76
2023/03/15 03:05:14;;;;;;;;;9.00;7.67;;;;;5.38;100.00;101224.63;4989494;28;45443;-75
2023/03/15 03:07:44;;;;;;;;;7.33;7.33;;;;;5.39;100.00;101228.19;4995258;28;45350;-76
2023/03/15 03:10:12;;;;;;;;;8.33;6.00;;;;;5.37;100.00;101222.09;5014939;28;45960;-76
2023/03/15 03:12:38;;;;;;;;;8.00;5.33;;;;;5.36;100.00;101229.41;5020528;28;45685;-75
2023/03/15 03:15:04;;;;;;;;;6.00;6.00;;;;;5.34;100.00;101236.00;5001062;28;45375;-75
2023/03/15 03:17:30;;;;;;;;;8.67;5.00;;;;;5.33;100.00;101235.16;5014930;28;45586;-76
2023/03/15 03:19:56;;;;;;;;;6.67;5.00;;;;;5.34;100.00;101244.16;5007519;28;45942;-75
2023/03/15 03:22:23;;;;;;;;;8.33;5.33;;;;;5.32;100.00;101246.22;5013219;28;46430;-76
2023/03/15 03:24:51;;;;;;;;;6.00;4.67;;;;;5.27;100.00;101241.25;5012996;28;45481;-75
2023/03/15 03:27:17;;;;;;;;;4.67;4.67;;;;;5.27;100.00;101243.97;5013242;28;45303;-76
2023/03/15 03:29:43;;;;;;;;;11.33;7.67;;;;;5.25;100.00;101235.09;5007447;28;45340;-77
2023/03/15 03:32:09;;;;;;;;;11.00;5.33;;;;;5.22;100.00;101240.88;5010545;28;46189;-77
2023/03/15 03:34:35;;;;;;;;;8.67;8.33;;;;;5.20;100.00;101234.75;5010345;28;45576;-76
2023/03/15 03:37:00;;;;;;;;;4.67;4.00;;;;;5.16;100.00;101236.94;5012787;28;45736;-75
2023/03/15 03:39:26;;;;;;;;;6.00;5.00;;;;;5.18;100.00;101236.75;5006112;28;45443;-75
2023/03/15 03:41:51;;;;;;;;;11.33;6.67;;;;;5.13;100.00;101238.13;4998737;28;46205;-76
2023/03/15 03:44:17;;;;;;;;;5.00;5.00;;;;;5.15;100.00;101237.09;5004428;28;45464;-75
2023/03/15 03:46:42;;;;;;;;;9.33;6.33;;;;;5.12;100.00;101232.84;5018414;28;45917;-76
2023/03/15 03:49:08;;;;;;;;;8.67;8.67;;;;;5.09;100.00;101225.84;5014376;28;46757;-75
2023/03/15 03:51:33;;;;;;;;;8.67;6.33;;;;;5.06;100.00;101226.19;5005259;28;45487;-75
2023/03/15 03:54:00;;;;;;;;;6.00;6.00;;;;;5.08;100.00;101232.28;5005131;28;45425;-76
2023/03/15 03:56:26;;;;;;;;;7.00;4.33;;;;;5.07;100.00;101235.19;4986338;28;45698;-76
2023/03/15 03:58:54;;;;;;;;;4.00;4.00;;;;;5.04;100.00;101247.22;5006095;28;45432;-76
2023/03/15 04:01:21;;;;;;;;;8.00;4.33;;;;;5.06;100.00;101249.78;5003453;28;46764;-75
2023/03/15 04:03:46;;;;;;;;;8.67;7.33;;;;;5.04;100.00;101252.66;5009835;28;45505;-77
2023/03/15 04:06:12;;;;;;;;;5.00;4.00;;;;;5.03;100.00;101256.41;5000082;28;45472;-76
2023/03/15 04:08:37;;;;;;;;;9.33;5.00;;;;;5.02;100.00;101253.84;5000932;28;46004;-75
2023/03/15 04:11:03;;;;;;;;;10.00;6.33;;;;;5.06;100.00;101260.66;5009032;28;46939;-75
2023/03/15 04:13:29;;;;;;;;;9.00;6.67;;;;;5.04;100.00;101257.25;5004045;28;45339;-76
2023/03/15 04:16:00;;;;;;;;;5.00;5.00;;;;;5.06;100.00;101257.94;5004055;28;45402;-77
2023/03/15 04:18:26;;;;;;;;;9.67;8.00;;;;;5.03;100.00;101250.97;5000442;28;45809;-75
2023/03/15 04:20:53;;;;;;;;;8.00;6.33;;;;;5.06;100.00;101260.66;5001154;28;45519;-76
2023/03/15 04:23:19;;;;;;;;;8.00;4.00;;;;;5.07;100.00;101251.50;5007168;28;45649;-77
2023/03/15 04:25:53;;;;;;;;;5.33;5.33;;;;;4.94;100.00;101231.03;5013288;28;45651;-77
2023/03/15 04:28:19;;;;;;;;;5.33;5.00;;;;;5.09;100.00;101249.44;5001739;28;45526;-77
2023/03/15 04:30:47;;;;;;;;;6.33;5.00;;;;;5.08;100.00;101253.22;5011830;28;46144;-76
2023/03/15 04:33:14;;;;;;;;;8.33;7.33;;;;;5.04;100.00;101247.22;5011422;28;45397;-77
2023/03/15 04:35:41;;;;;;;;;7.00;6.00;;;;;5.07;100.00;101246.91;5013811;28;45525;-77
2023/03/15 04:38:07;;;;;;;;;10.00;7.33;;;;;5.08;100.00;101240.44;5013599;28;45882;-77
2023/03/15 04:40:36;;;;;;;;;5.33;3.67;;;;;5.08;100.00;101243.19;5009274;28;45496;-75
2023/03/15 04:43:04;;;;;;;;;3.33;3.33;;;;;5.10;100.00;101257.47;5011648;28;45371;-77
2023/03/15 04:45:30;;;;;;;;;4.67;4.67;;;;;5.11;100.00;101259.16;5004174;28;45606;-75
2023/03/15 04:47:56;;;;;;;;;9.00;5.00;;;;;5.05;100.00;101250.81;5011291;28;46527;-78
2023/03/15 04:50:23;;;;;;;;;5.00;5.00;;;;;5.10;100.00;101262.03;5015339;28;45633;-77
2023/03/15 04:52:49;;;;;;;;;4.33;4.00;;;;;5.07;100.00;101257.78;4992506;28;45641;-76
2023/03/15 04:55:15;;;;;;;;;6.67;4.33;;;;;5.07;100.00;101267.81;4996439;28;45897;-74
2023/03/15 04:57:41;;;;;;;;;7.67;5.33;;;;;5.07;100.00;101262.38;5006404;28;46906;-75
2023/03/15 05:00:09;;;;;;;;;4.00;3.00;;;;;5.06;100.00;101261.53;5015343;28;45347;-77
2023/03/15 05:02:38;;;;;;;;;0.67;0.67;;;;;5.08;100.00;101264.06;5008092;28;45701;-79
2023/03/15 05:05:05;;;;;;;;;6.00;4.67;;;;;5.05;100.00;101270.69;5014446;28;45481;-74
2023/03/15 05:07:34;;;;;;;;;7.33;4.67;;;;;5.08;100.00;101275.78;5012669;28;46461;-77
2023/03/15 05:10:00;;;;;;;;;6.67;6.33;;;;;5.07;100.00;101284.94;5010268;28;45933;-78
2023/03/15 05:12:26;;;;;;;;;5.00;3.67;;;;;5.02;100.00;101281.03;5002263;28;45334;-76
2023/03/15 05:14:51;;;;;;;;;9.67;6.67;;;;;5.04;100.00;101287.16;5015137;28;45816;-76
2023/03/15 05:17:17;;;;;;;;;9.33;8.67;;;;;5.00;100.00;101289.34;5013940;28;45636;-75
2023/03/15 05:19:42;;;;;;;;;10.00;6.33;;;;;4.88;100.00;101274.28;5013672;28;45462;-76
2023/03/15 05:22:08;;;;;;;;;3.67;3.67;;;;;4.98;100.00;101283.19;5014795;28;45423;-77
2023/03/15 05:24:33;;;;;;;;;6.67;5.00;;;;;4.99;100.00;101284.91;4990837;28;45534;-76
2023/03/15 05:26:59;;;;;;;;;6.67;5.67;;;;;4.93;100.00;101271.97;5006750;28;45475;-76
2023/03/15 05:29:24;;;;;;;;;7.00;5.67;;;;;4.96;100.00;101282.50;4993565;28;46006;-77
2023/03/15 05:31:51;;;;;;;;;6.67;6.67;;;;;4.94;100.00;101277.25;5004431;28;45679;-76
2023/03/15 05:34:17;;;;;;;;;5.00;4.00;;;;;4.92;100.00;101276.53;5011019;28;45652;-76
2023/03/15 05:36:44;;;;;;;;;11.33;10.00;;;;;4.89;100.00;101278.72;5004324;28;45484;-77
2023/03/15 05:39:10;;;;;;;;;9.33;6.33;;;;;4.91;100.00;101287.56;5013395;28;45995;-76
2023/03/15 05:41:36;;;;;;;;;7.00;5.00;;;;;4.91;100.00;101287.56;5012786;28;46599;-76
2023/03/15 05:44:01;;;;;;;;;9.00;5.67;;;;;4.84;100.00;101281.06;5011371;28;45428;-75
2023/03/15 05:46:26;;;;;;;;;5.33;5.00;;;;;4.89;100.00;101287.72;5008546;28;45934;-76
2023/03/15 05:48:52;;;;;;;;;5.33;5.33;;;;;4.89;100.00;101292.31;5013987;28;45807;-76
2023/03/15 05:51:18;;;;;;;;;7.33;4.33;;;;;4.83;100.00;101284.78;5009046;28;45777;-80
2023/03/15 05:53:43;;;;;;;;;8.33;8.00;;;;;4.85;100.00;101288.19;5010180;28;45701;-70
2023/03/15 05:56:09;;;;;;;;;8.00;4.00;;;;;4.85;100.00;101291.78;5009050;28;46327;-70
2023/03/15 05:58:35;;;;;;;;;9.33;7.33;;;;;4.88;100.00;101291.47;5011979;28;45765;-70
2023/03/15 06:01:02;;;;;;;;;6.00;5.00;;;;;4.86;100.00;101290.75;5009830;28;46556;-69
2023/03/15 06:03:28;;;;;;;;;8.00;5.00;;;;;4.91;100.00;101304.75;5010676;28;45857;-69
2023/03/15 06:05:54;;;;;;;;;9.33;7.67;;;;;4.80;100.00;101282.41;5010445;28;45868;-69
2023/03/15 06:08:20;;;;;;;;;10.00;5.67;;;;;4.95;100.00;101299.81;4993914;28;46092;-72
2023/03/15 06:10:45;;;;;;;;;5.67;4.33;;;;;4.98;100.00;101304.94;5011112;28;45893;-73
2023/03/15 06:13:11;;;;;;;;;9.67;7.67;;;;;5.04;100.00;101315.19;4997556;28;45454;-67
2023/03/15 06:15:36;;;;;;;;;7.67;6.33;;;;;5.03;100.00;101302.63;5007874;28;45610;-66
2023/03/15 06:18:02;;;;;;;;;7.00;5.00;;;;;5.16;100.00;101312.22;5008588;28;46137;-72
2023/03/15 06:20:28;;;;;;;;;6.67;5.33;;;;;5.24;100.00;101301.38;5011141;28;45417;-67
2023/03/15 06:22:53;;;;;;;;;11.00;5.00;;;;;5.25;100.00;101303.09;5013385;28;45673;-69
2023/03/15 06:25:19;;;;;;;;;6.00;5.67;;;;;5.41;100.00;101319.50;5012387;28;45441;-72
2023/03/15 06:27:45;;;;;;;;;11.00;9.00;;;;;5.46;100.00;101319.91;5007432;28;46008;-74
2023/03/15 06:30:10;;;;;;;;;11.00;9.67;;;;;5.56;100.00;101321.66;5012399;28;45555;-69
2023/03/15 06:32:36;;;;;;;;;11.67;10.67;;;;;5.63;100.00;101309.09;5003274;28;45449;-70
2023/03/15 06:35:03;;;;;;;;;14.67;11.67;;;;;5.74;100.00;101318.84;5022892;28;46781;-73
2023/03/15 06:37:29;;;;;;;;;8.67;8.67;;;;;5.92;100.00;101327.75;5011382;28;45433;-69
2023/03/15 06:39:55;;;;;;;;;12.00;8.00;;;;;6.02;100.00;101327.66;5005031;28;45668;-73
2023/03/15 06:42:20;;;;;;;;;11.67;8.00;;;;;6.09;100.00;101323.28;5004304;28;45520;-71
2023/03/15 06:44:46;;;;;;;;;8.67;7.33;;;;;6.21;100.00;101326.53;5004291;28;45860;-73
2023/03/15 06:47:12;;;;;;;;;12.33;11.00;;;;;6.30;100.00;101330.13;4999326;28;46170;-74
2023/03/15 06:49:37;;;;;;;;;11.00;9.67;;;;;6.43;100.00;101330.50;5007079;28;46286;-72
2023/03/15 06:52:04;;;;;;;;;7.00;7.00;;;;;6.58;100.00;101322.50;5004642;28;46759;-73
2023/03/15 06:54:30;;;;;;;;;10.00;7.00;;;;;6.71;100.00;101327.47;4988577;28;46718;-72
2023/03/15 06:56:55;;;;;;;;;10.00;8.00;;;;;7.11;100.00;101325.78;5004619;28;46673;-73
2023/03/15 06:59:21;;;;;;;;;6.00;3.00;;;;;7.97;100.00;101317.88;5007234;28;45679;-72
2023/03/15 07:01:47;;;;;;;;;6.00;5.67;;;;;8.62;100.00;101321.28;5010036;28;45516;-73
2023/03/15 07:04:12;;;;;;;;;9.00;8.00;;;;;9.22;100.00;101332.41;4993679;28;46790;-72
2023/03/15 07:06:38;;;;;;;;;10.67;9.67;;;;;9.81;100.00;101317.94;5005898;28;45680;-73
2023/03/15 07:09:04;;;;;;;;;8.00;7.00;;;;;10.28;100.00;101330.31;4990697;28;45557;-74
2023/03/15 07:11:30;;;;;;;;;9.33;9.33;;;;;10.86;100.00;101335.81;5010283;28;45531;-73
2023/03/15 07:13:56;;;;;;;;;9.67;8.67;;;;;11.53;100.00;101319.06;5008630;28;45450;-72
2023/03/15 07:16:21;;;;;;;;;9.00;7.67;;;;;12.30;100.00;101336.41;5005851;28;45923;-72
2023/03/15 07:18:47;;;;;;;;;9.67;7.33;;;;;13.09;100.00;101336.78;5006857;28;45556;-73
2023/03/15 07:21:12;;;;;;;;;8.33;7.00;;;;;13.55;100.00;101338.72;5005070;28;46594;-73
2023/03/15 07:23:37;;;;;;;;;9.00;7.67;;;;;13.37;100.00;101342.13;5004485;28;45980;-72
2023/03/15 07:26:03;;;;;;;;;8.33;6.67;;;;;13.16;100.00;101346.75;4997384;28;45940;-70
2023/03/15 07:28:28;;;;;;;;;10.00;7.00;;;;;12.88;100.00;101350.50;5010857;28;45877;-71
2023/03/15 07:31:12;;;;;;;;;8.33;7.00;;;;;12.58;100.00;101351.94;5007509;28;45474;-73
2023/03/15 07:33:38;;;;;;;;;6.67;6.67;;;;;12.30;100.00;101361.16;4984957;28;47028;-72
2023/03/15 07:36:06;;;;;;;;;10.67;8.00;;;;;12.00;100.00;101353.19;4999417;28;45834;-70
2023/03/15 07:38:33;;;;;;;;;12.33;9.00;;;;;11.70;100.00;101356.16;4988749;28;45953;-71
2023/03/15 07:41:01;;;;;;;;;9.33;8.33;;;;;11.41;100.00;101366.31;5002933;28;45528;-71
2023/03/15 07:43:28;;;;;;;;;11.33;9.33;;;;;11.15;100.00;101364.16;5001373;28;45587;-71
2023/03/15 07:45:53;;;;;;;;;7.00;6.00;;;;;10.88;100.00;101363.94;4990671;28;46430;-70
2023/03/15 07:48:19;;;;;;;;;8.67;6.67;;;;;10.74;100.00;101368.41;4981925;28;46035;-72
2023/03/15 07:50:45;;;;;;;;;7.00;5.00;;;;;10.60;100.00;101372.09;4999622;28;45679;-72
2023/03/15 07:53:10;;;;;;;;;8.67;8.33;;;;;10.47;100.00;101385.63;5001038;28;45802;-72
2023/03/15 07:55:35;;;;;;;;;5.67;4.67;;;;;10.39;100.00;101378.38;4998010;28;45618;-71
2023/03/15 07:58:02;;;;;;;;;7.00;5.33;;;;;10.27;100.00;101379.84;5004795;28;45716;-68
2023/03/15 08:00:28;;;;;;;;;5.00;4.00;;;;;10.18;100.00;101376.38;4990091;28;45881;-71
2023/03/15 08:02:53;;;;;;;;;6.67;3.67;;;;;10.10;100.00;101385.53;5002083;28;45403;-71
2023/03/15 08:05:18;;;;;;;;;2.67;1.33;;;;;10.01;100.00;101384.78;5007648;28;47780;-72
2023/03/15 08:07:45;;;;;;;;;6.00;5.00;;;;;9.96;100.00;101389.16;4991991;28;45334;-71
2023/03/15 08:10:12;;;;;;;;;7.33;5.67;;;;;9.96;100.00;101389.16;5006431;28;45476;-76
2023/03/15 08:12:39;;;;;;;;;5.00;5.00;;;;;9.94;100.00;101403.03;5007194;28;45901;-73
2023/03/15 08:15:05;;;;;;;;;4.00;4.00;;;;;9.96;100.00;101411.91;4992684;28;47147;-70
2023/03/15 08:17:31;;;;;;;;;6.33;5.00;;;;;9.97;100.00;101415.50;5007558;28;45479;-70
2023/03/15 08:19:56;;;;;;;;;9.33;5.00;;;;;10.07;100.00;101418.81;5005977;28;45421;-71
2023/03/15 08:22:22;;;;;;;;;6.67;6.67;;;;;10.16;100.00;101416.81;4990052;28;46101;-70
2023/03/15 08:24:49;;;;;;;;;9.00;7.00;;;;;10.16;100.00;101412.19;5001909;28;45635;-68
2023/03/15 08:27:14;;;;;;;;;9.67;8.00;;;;;10.24;100.00;101423.06;5003931;28;45703;-69
2023/03/15 08:29:40;;;;;;;;;8.67;7.00;;;;;10.32;100.00;101416.63;4997297;28;45425;-70
2023/03/15 08:32:06;;;;;;;;;12.33;7.00;;;;;10.40;100.00;101423.94;5010832;28;45897;-68
2023/03/15 08:34:33;;;;;;;;;10.67;8.00;;;;;10.47;100.00;101424.03;4987428;28;48510;-69
2023/03/15 08:37:00;;;;;;;;;7.00;7.00;;;;;10.55;100.00;101432.13;5009304;28;45757;-68
2023/03/15 08:39:25;;;;;;;;;10.33;9.00;;;;;10.67;100.00;101430.59;4996694;28;45495;-68
2023/03/15 08:41:50;;;;;;;;;8.33;5.67;;;;;10.81;100.00;101426.13;4982454;28;46115;-69
2023/03/15 08:44:16;;;;;;;;;7.00;7.00;;;;;10.88;100.00;101431.66;4995282;28;48085;-68
2023/03/15 08:46:42;;;;;;;;;12.67;9.33;;;;;10.97;100.00;101425.00;4998911;28;45390;-68
2023/03/15 08:49:07;;;;;;;;;7.67;7.67;;;;;11.16;100.00;101433.66;5005173;28;45447;-70
2023/03/15 08:51:33;;;;;;;;;7.67;6.00;;;;;11.23;100.00;101412.63;5001175;28;45749;-70
2023/03/15 08:53:59;;;;;;;;;7.33;5.67;;;;;11.36;100.00;101428.34;5007691;28;47127;-69
2023/03/15 08:56:24;;;;;;;;;4.00;4.00;;;;;11.55;100.00;101437.81;4980580;28;46003;-70
2023/03/15 08:58:50;;;;;;;;;7.33;3.67;;;;;11.73;100.00;101429.09;5004883;28;45705;-70
2023/03/15 09:01:15;;;;;;;;;7.00;4.00;;;;;11.96;100.00;101424.22;5001922;28;45592;-70
2023/03/15 09:03:41;;;;;;;;;4.33;4.33;;;;;12.25;100.00;101432.44;5006178;28;45512;-69
2023/03/15 09:06:08;;;;;;;;;9.67;4.67;;;;;12.56;100.00;101431.06;5001853;28;45332;-71
2023/03/15 09:08:33;;;;;;;;;5.33;4.00;;;;;12.77;100.00;101436.47;5006931;28;45386;-70
2023/03/15 09:11:00;;;;;;;;;6.00;4.00;;;;;12.91;100.00;101439.28;5010885;28;45706;-72
2023/03/15 09:13:26;;;;;;;;;5.00;5.00;;;;;13.06;100.00;101443.53;5009535;28;45759;-70
2023/03/15 09:15:53;;;;;;;;;5.00;3.33;;;;;13.21;100.00;101442.50;4991696;28;45392;-68
2023/03/15 09:18:20;;;;;;;;;3.33;3.33;;;;;13.33;100.00;101453.75;5009127;28;45331;-70
2023/03/15 09:20:45;;;;;;;;;6.67;3.33;;;;;13.55;100.00;101455.28;5009589;28;45844;-69
2023/03/15 09:23:12;;;;;;;;;8.67;4.00;;;;;13.83;100.00;101439.59;4989115;28;47225;-67
2023/03/15 09:25:37;;;;;;;;;6.00;4.00;;;;;14.11;100.00;101447.59;5000536;28;45387;-68
2023/03/15 09:28:04;;;;;;;;;5.33;4.00;;;;;14.37;100.00;101437.56;4999486;28;45635;-69
2023/03/15 09:30:30;;;;;;;;;7.67;5.00;;;;;14.67;100.00;101437.94;5004341;28;45717;-68
2023/03/15 09:32:55;;;;;;;;;5.67;4.67;;;;;14.97;100.00;101440.09;5001389;28;45866;-68
2023/03/15 09:35:21;;;;;;;;;8.67;4.00;;;;;15.27;100.00;101436.72;5005224;28;45761;-68
2023/03/15 09:37:48;;;;;;;;;2.67;2.67;;;;;15.58;100.00;101440.53;5001437;28;45413;-68
2023/03/15 09:40:29;;;;;;;;;2.67;2.67;;;;;15.97;100.00;101453.19;5005120;28;45493;-67
2023/03/15 09:43:06;;;;;;;;;4.00;4.00;;;;;16.17;100.00;101443.84;5012248;28;45760;-69
2023/03/15 09:45:47;;;;;;;;;7.33;3.00;;;;;16.69;100.00;101446.22;4998070;28;45517;-69
2023/03/15 09:48:36;;;;;;;;;4.33;2.00;;;;;17.22;100.00;101445.50;5003024;28;45459;-68
2023/03/15 09:51:13;;;;;;;;;3.33;2.67;;;;;17.96;100.00;101449.88;5000956;28;45848;-67
2023/03/15 09:53:49;;;;;;;;;4.33;2.33;;;;;18.49;98.96;101439.69;4998227;28;46700;-70
2023/03/15 09:56:32;;;;;;;;;2.00;2.00;;;;;19.38;95.63;101443.94;4998767;28;45413;-68
2023/03/15 09:59:03;;;;;;;;;3.33;2.00;;;;;20.08;90.74;101436.22;5000365;28;45267;-68
2023/03/15 10:01:33;;;;;;;;;2.00;2.00;;;;;20.56;87.43;101431.00;5006661;28;45726;-71
2023/03/15 10:04:09;;;;;;;;;7.00;4.00;;;;;21.20;85.39;101416.44;5004484;28;46748;-69
2023/03/15 10:06:36;;;;;;;;;4.67;3.33;;;;;21.76;80.53;101432.00;5000239;28;45648;-68
2023/03/15 10:09:09;;;;;;;;;2.75;2.00;;;;;22.08;78.60;101431.09;5007569;28;45992;-68
2023/03/15 10:12:04;;;;;;;;;2.50;2.50;;;;;22.69;75.72;101430.59;4999132;28;45341;-69
2023/03/15 10:14:32;;;;;;;;;2.75;2.25;;;;;23.18;71.28;101432.19;5005434;28;45849;-69
2023/03/15 10:16:58;;;;;;;;;4.75;3.25;;;;;23.84;69.87;101428.53;4983319;28;45733;-68
2023/03/15 10:19:44;;;;;;;;;4.75;3.50;;;;;24.49;67.49;101428.69;5006098;28;45291;-68
2023/03/15 10:22:13;;;;;;;;;3.00;2.00;;;;;25.25;64.21;101428.59;4989171;28;45850;-68
2023/03/15 10:24:59;;;;;;;;;2.00;2.00;;;;;26.06;62.54;101417.84;5004820;28;46278;-70
2023/03/15 10:27:38;;;;;;;;;3.00;1.25;;;;;26.78;58.78;101416.97;4996862;28;45657;-70
2023/03/15 10:30:15;;;;;;;;;2.00;2.00;;;;;26.97;55.75;101412.50;5015016;28;45539;-70
2023/03/15 10:32:43;;;;;;;;;4.50;2.00;;;;;27.22;53.27;101416.91;4992985;28;45919;-69
2023/03/15 10:35:17;;;;;;;;;0.75;0.75;;;;;27.38;51.81;101406.25;5006514;28;47357;-69
2023/03/15 10:37:43;;;;;;;;;2.00;2.00;;;;;27.73;49.98;101396.34;5012566;28;45777;-70
2023/03/15 10:40:14;;;;;;;;;2.00;0.25;;;;;28.07;48.14;101400.84;5014911;28;45700;-67
2023/03/15 10:42:43;;;;;;;;;2.00;1.00;;;;;28.20;48.23;101393.50;5015826;28;45750;-67
2023/03/15 10:45:21;;;;;;;;;4.00;3.00;;;;;27.70;46.60;101379.25;4997187;28;46984;-66
2023/03/15 10:47:48;;;;;;;;;2.00;2.00;;;;;27.35;47.09;101393.66;4998217;28;45427;-68
2023/03/15 10:50:31;;;;;;;;;1.50;1.00;;;;;26.35;46.58;101390.81;5019401;28;45787;-69
2023/03/15 10:53:00;;;;;;;;;1.00;1.00;;;;;25.45;45.66;101393.94;5008986;28;45336;-68
2023/03/15 10:55:31;;;;;;;;;0.75;0.75;;;;;24.89;48.36;101395.16;5007917;28;46597;-69
2023/03/15 10:58:10;;;;;;;;;1.25;1.00;;;;;24.65;47.88;101389.41;5011652;28;45430;-69
2023/03/15 11:00:36;;;;;;;;;2.75;1.00;;;;;24.80;47.40;101392.09;5009864;28;45787;-69
2023/03/15 11:03:04;;;;;;;;;2.50;1.25;;;;;24.58;48.87;101389.72;4994449;28;45462;-68
2023/03/15 11:05:37;;;;;;;;;0.25;0.25;;;;;24.41;47.87;101401.25;4979836;28;48604;-71
2023/03/15 11:08:02;;;;;;;;;0.75;0.75;;;;;24.47;47.11;101390.84;5001999;28;45480;-67
2023/03/15 11:10:33;;;;;;;;;0.75;0.50;;;;;24.35;47.67;101399.59;4996535;28;45351;-67
2023/03/15 11:13:19;;;;;;;;;1.75;1.75;;;;;24.36;47.62;101392.00;4978044;28;47040;-68
2023/03/15 11:15:54;;;;;;;;;1.00;1.00;;;;;24.24;46.95;101397.97;4994656;28;45640;-67
2023/03/15 11:18:30;;;;;;;;;1.50;0.50;;;;;24.03;48.24;101392.41;4998533;28;45877;-69
2023/03/15 11:20:57;;;;;;;;;7.00;7.00;;;;;24.01;48.25;101396.59;5000625;28;45390;-72
2023/03/15 11:23:30;;;;;;;;;1.50;1.50;;;;;23.85;47.02;101393.84;4983689;28;45739;-71
2023/03/15 11:25:57;;;;;;;;;5.00;4.33;;;;;23.20;48.10;101393.56;4996616;28;45363;-70